Time;durP1;ratioP1;P1;durP2;ratioP2;P2;SDS_P1;SDS_P2;PMS_P1;PMS_P2;Temp;Humidity;BMP_temperature;BMP_pressure;BME280_temperature;BME280_humidity;BME280_pressure;Samples;Min_cycle;Max_cycle;Signal;HPM_P1;HPM_P2
2022/03/08 00:01:31;;;;;;;10.23;6.30;;;;;;;2.02;57.57;102274.53;5060038;28;20377;-84
2022/03/08 00:03:56;;;;;;;10.75;5.80;;;;;;;2.02;57.44;102275.41;5056555;28;20031;-83
2022/03/08 00:06:21;;;;;;;9.68;5.88;;;;;;;2.02;57.57;102269.31;5056096;28;20021;-83
2022/03/08 00:08:47;;;;;;;9.43;5.95;;;;;;;1.95;58.24;102262.22;5054185;28;20515;-83
2022/03/08 00:11:13;;;;;;;14.30;6.18;;;;;;;1.89;60.04;102262.13;5058707;28;20032;-83
2022/03/08 00:13:38;;;;;;;10.23;6.32;;;;;;;1.83;60.30;102262.00;5056830;28;20640;-84
2022/03/08 00:16:04;;;;;;;14.75;6.55;;;;;;;1.74;58.77;102260.97;5052127;28;20040;-84
2022/03/08 00:18:29;;;;;;;8.48;5.78;;;;;;;1.77;59.38;102257.53;5057768;28;20042;-84
2022/03/08 00:20:55;;;;;;;8.13;5.85;;;;;;;1.85;59.79;102266.38;5055586;28;20036;-84
2022/03/08 00:23:20;;;;;;;8.80;5.40;;;;;;;1.85;57.94;102260.28;5058333;28;20028;-83
2022/03/08 00:25:45;;;;;;;14.18;5.88;;;;;;;1.91;57.32;102263.91;5058063;28;20044;-83
2022/03/08 00:28:11;;;;;;;8.15;5.63;;;;;;;1.91;57.12;102260.41;5077836;28;20060;-84
2022/03/08 00:30:36;;;;;;;7.53;4.97;;;;;;;1.97;56.61;102258.78;5058540;28;20035;-84
2022/03/08 00:33:02;;;;;;;9.30;5.38;;;;;;;1.83;57.01;102257.66;5056607;28;20040;-83
2022/03/08 00:35:28;;;;;;;7.90;5.25;;;;;;;1.82;56.71;102255.00;5056850;28;20055;-84
2022/03/08 00:37:55;;;;;;;10.20;6.18;;;;;;;1.87;56.47;102254.28;5058394;28;20492;-83
2022/03/08 00:40:21;;;;;;;7.10;5.07;;;;;;;1.85;56.42;102250.75;5060188;28;20029;-83
2022/03/08 00:42:47;;;;;;;8.23;5.40;;;;;;;1.89;57.49;102243.84;5062273;28;20634;-83
2022/03/08 00:45:13;;;;;;;11.43;5.55;;;;;;;1.86;56.42;102249.00;5062382;28;20036;-83
2022/03/08 00:47:40;;;;;;;10.98;6.18;;;;;;;1.79;56.24;102246.28;5079014;28;20516;-83
2022/03/08 00:50:08;;;;;;;9.07;5.00;;;;;;;1.78;57.45;102248.88;5063910;28;20024;-83
2022/03/08 00:52:34;;;;;;;10.73;5.60;;;;;;;1.77;59.08;102241.88;5063722;28;20036;-83
2022/03/08 00:54:59;;;;;;;10.40;5.68;;;;;;;1.78;58.10;102241.06;5062809;28;20033;-83
2022/03/08 00:57:25;;;;;;;7.15;5.03;;;;;;;1.82;56.28;102255.00;5058076;28;20506;-82
2022/03/08 00:59:50;;;;;;;9.07;5.15;;;;;;;1.75;56.91;102246.22;5057156;28;20119;-83
2022/03/08 01:02:15;;;;;;;9.30;5.05;;;;;;;1.68;56.74;102244.31;5057394;28;20074;-83
2022/03/08 01:04:40;;;;;;;9.88;5.88;;;;;;;1.68;58.23;102244.31;5058464;28;20047;-83
2022/03/08 01:07:07;;;;;;;9.30;5.57;;;;;;;1.60;57.12;102243.31;5056946;28;20115;-83
2022/03/08 01:09:33;;;;;;;7.55;5.50;;;;;;;1.62;57.44;102250.31;5060091;28;20438;-83
2022/03/08 01:11:59;;;;;;;8.13;5.35;;;;;;;1.63;57.26;102249.47;5057325;28;20028;-83
2022/03/08 01:14:24;;;;;;;8.90;5.68;;;;;;;1.58;57.58;102247.59;5090224;28;20539;-82
2022/03/08 01:16:50;;;;;;;7.65;5.03;;;;;;;1.48;57.78;102252.63;5056548;28;20029;-82
2022/03/08 01:19:15;;;;;;;7.78;5.18;;;;;;;1.41;56.53;102253.38;5055010;28;20032;-83
2022/03/08 01:21:41;;;;;;;8.98;5.53;;;;;;;1.42;57.34;102246.44;5055980;28;20024;-83
2022/03/08 01:24:06;;;;;;;12.07;4.57;;;;;;;1.38;58.69;102239.41;5058301;28;20131;-82
2022/03/08 01:26:32;;;;;;;8.82;5.50;;;;;;;1.44;56.51;102239.53;5060888;28;20040;-82
2022/03/08 01:28:59;;;;;;;9.48;5.63;;;;;;;1.46;55.76;102240.44;5062076;28;20055;-83
2022/03/08 01:31:24;;;;;;;7.55;4.82;;;;;;;1.45;57.44;102244.78;5061770;28;20036;-82
2022/03/08 01:33:50;;;;;;;6.82;4.70;;;;;;;1.46;56.48;102230.91;5062809;28;20074;-83
2022/03/08 01:36:16;;;;;;;8.20;4.80;;;;;;;1.44;56.81;102237.78;5063372;28;20399;-83
2022/03/08 01:38:42;;;;;;;8.43;5.10;;;;;;;1.44;55.75;102229.09;5060538;28;20039;-83
2022/03/08 01:41:08;;;;;;;6.60;4.55;;;;;;;1.39;55.72;102220.31;5062528;28;20047;-82
2022/03/08 01:43:34;;;;;;;6.60;4.68;;;;;;;1.47;55.72;102219.63;5062925;28;20032;-83
2022/03/08 01:45:59;;;;;;;7.82;5.03;;;;;;;1.45;55.83;102217.84;5061441;28;20490;-82
2022/03/08 01:48:25;;;;;;;7.20;4.93;;;;;;;1.41;56.20;102211.69;5061178;28;20044;-82
2022/03/08 01:50:51;;;;;;;7.03;5.03;;;;;;;1.38;56.28;102208.13;5064330;28;20039;-83
2022/03/08 01:53:16;;;;;;;9.20;5.53;;;;;;;1.38;55.95;102211.63;5061927;28;20395;-82
2022/03/08 01:55:42;;;;;;;7.15;4.80;;;;;;;1.38;55.63;102206.41;5061132;28;20172;-82
2022/03/08 01:58:07;;;;;;;7.47;4.60;;;;;;;1.36;56.35;102209.84;5063088;28;20452;-83
2022/03/08 02:00:33;;;;;;;6.65;4.70;;;;;;;1.35;56.34;102210.69;5064041;28;20500;-82
2022/03/08 02:02:59;;;;;;;8.85;4.90;;;;;;;1.32;55.54;102195.88;5062729;28;20106;-82
2022/03/08 02:05:26;;;;;;;7.32;4.65;;;;;;;1.35;55.28;102202.84;5063567;28;20032;-82
2022/03/08 02:07:52;;;;;;;8.85;5.07;;;;;;;1.31;55.65;102190.66;5060838;28;20066;-82
2022/03/08 02:10:17;;;;;;;8.70;5.55;;;;;;;1.24;55.75;102185.28;5062492;28;20036;-82
2022/03/08 02:12:43;;;;;;;11.43;5.38;;;;;;;1.21;55.98;102187.88;5060501;28;20063;-82
2022/03/08 02:15:15;;;;;;;6.90;5.15;;;;;;;1.33;56.02;102194.16;5061565;28;20432;-82
2022/03/08 02:17:41;;;;;;;9.00;5.05;;;;;;;1.26;55.63;102181.00;5061518;28;20037;-82
2022/03/08 02:20:07;;;;;;;9.95;5.30;;;;;;;1.25;55.30;102179.22;5059424;28;20067;-82
2022/03/08 02:22:33;;;;;;;10.32;5.18;;;;;;;1.24;55.42;102181.81;5063300;28;20044;-83
2022/03/08 02:24:58;;;;;;;10.05;5.18;;;;;;;1.21;56.14;102182.66;5061870;28;20032;-82
2022/03/08 02:27:24;;;;;;;14.15;5.18;;;;;;;1.22;55.86;102181.78;5062379;28;20579;-83
2022/03/08 02:29:50;;;;;;;8.50;5.55;;;;;;;1.23;56.08;102177.47;5061422;28;20078;-82
2022/03/08 02:32:16;;;;;;;9.30;5.78;;;;;;;1.21;56.16;102171.31;5062678;28;20051;-82
2022/03/08 02:34:42;;;;;;;8.88;4.75;;;;;;;1.22;56.24;102175.72;5063643;28;20024;-82
2022/03/08 02:37:08;;;;;;;10.48;4.35;;;;;;;1.19;56.25;102175.63;5060832;28;20103;-82
2022/03/08 02:39:35;;;;;;;9.82;5.47;;;;;;;1.20;56.09;102160.03;5060616;28;20724;-82
2022/03/08 02:42:00;;;;;;;9.25;5.20;;;;;;;1.14;56.20;102146.03;5061060;28;20031;-82
2022/03/08 02:44:26;;;;;;;7.70;5.05;;;;;;;1.15;55.71;102150.38;5059815;28;20468;-82
2022/03/08 02:46:52;;;;;;;9.48;5.72;;;;;;;1.15;55.79;102158.19;5062111;28;20028;-82
2022/03/08 02:49:18;;;;;;;7.75;5.25;;;;;;;1.18;55.56;102155.66;5062254;28;20046;-82
2022/03/08 02:51:43;;;;;;;6.95;4.80;;;;;;;1.18;55.62;102158.25;5060683;28;20067;-82
2022/03/08 02:54:08;;;;;;;7.13;4.72;;;;;;;1.17;55.40;102151.31;5062478;28;20028;-82
2022/03/08 02:56:34;;;;;;;8.63;5.07;;;;;;;1.12;55.92;102139.88;5061022;28;20073;-83
2022/03/08 02:59:00;;;;;;;8.65;5.70;;;;;;;1.12;55.54;102147.69;5061378;28;20039;-82
2022/03/08 03:01:26;;;;;;;8.00;4.82;;;;;;;1.13;55.63;102145.16;5061133;28;20499;-82
2022/03/08 03:03:51;;;;;;;7.57;5.05;;;;;;;1.04;56.34;102131.94;5061602;28;20028;-83
2022/03/08 03:06:17;;;;;;;7.95;5.00;;;;;;;1.10;56.00;102142.47;5060935;28;20020;-82
2022/03/08 03:08:42;;;;;;;8.48;5.50;;;;;;;1.08;56.23;102138.09;5059496;28;20028;-82
2022/03/08 03:11:07;;;;;;;10.13;5.20;;;;;;;1.10;56.48;102133.78;5059712;28;20032;-82
2022/03/08 03:13:33;;;;;;;8.98;5.38;;;;;;;1.05;56.61;102125.00;5061402;28;20028;-82
2022/03/08 03:15:58;;;;;;;7.18;5.20;;;;;;;0.99;56.68;102128.38;5059095;28;20043;-82
2022/03/08 03:18:24;;;;;;;9.18;4.93;;;;;;;0.90;56.54;102109.97;5058987;28;20032;-82
2022/03/08 03:20:49;;;;;;;8.07;5.20;;;;;;;0.91;56.60;102101.31;5059426;28;20064;-82
2022/03/08 03:23:14;;;;;;;9.02;5.40;;;;;;;0.99;55.84;102100.59;5060107;28;20535;-82
2022/03/08 03:25:39;;;;;;;12.13;5.35;;;;;;;0.99;55.84;102104.94;5062131;28;20056;-82
2022/03/08 03:28:05;;;;;;;10.57;5.53;;;;;;;0.97;56.76;102091.88;5060927;28;20513;-82
2022/03/08 03:30:30;;;;;;;8.27;5.53;;;;;;;0.97;56.65;102097.06;5061513;28;20480;-82
2022/03/08 03:32:55;;;;;;;7.60;4.88;;;;;;;0.95;57.61;102108.34;5058843;28;20032;-82
2022/03/08 03:35:21;;;;;;;10.35;5.13;;;;;;;0.89;57.47;102092.59;5062466;28;20016;-82
2022/03/08 03:37:46;;;;;;;7.82;5.38;;;;;;;0.84;57.23;102092.50;5060106;28;20035;-83
2022/03/08 03:40:13;;;;;;;9.55;5.35;;;;;;;0.80;57.41;102102.81;5059171;28;20021;-82
2022/03/08 03:42:38;;;;;;;8.63;5.32;;;;;;;0.80;58.93;102111.50;5060175;28;20077;-82
2022/03/08 03:45:04;;;;;;;8.25;5.60;;;;;;;0.83;59.56;102111.56;5060985;28;20365;-82
2022/03/08 03:47:30;;;;;;;9.52;5.18;;;;;;;0.76;59.22;102107.97;5061451;28;20031;-82
2022/03/08 03:49:55;;;;;;;8.90;5.28;;;;;;;0.80;59.06;102111.50;5058889;28;20033;-82
2022/03/08 03:52:21;;;;;;;7.95;5.93;;;;;;;0.73;58.50;102092.28;5061427;28;20039;-82
2022/03/08 03:54:46;;;;;;;11.13;6.20;;;;;;;0.79;57.59;102099.31;5060808;28;20579;-82
2022/03/08 03:57:12;;;;;;;13.45;6.47;;;;;;;0.72;58.19;102097.47;5059666;28;20119;-82
2022/03/08 03:59:38;;;;;;;7.50;5.47;;;;;;;0.77;58.56;102107.09;5060112;28;20559;-83
2022/03/08 04:02:04;;;;;;;8.00;5.72;;;;;;;0.74;58.37;102104.44;5060969;28;20511;-82
2022/03/08 04:04:29;;;;;;;8.82;5.85;;;;;;;0.77;58.13;102107.09;5061420;28;20067;-83
2022/03/08 04:06:54;;;;;;;8.50;5.72;;;;;;;0.78;60.26;102107.97;5061597;28;20158;-82
2022/03/08 04:09:20;;;;;;;9.50;5.18;;;;;;;0.82;57.80;102104.59;5061828;28;20036;-82
2022/03/08 04:11:45;;;;;;;7.88;5.18;;;;;;;0.82;58.12;102096.78;5059223;28;20393;-83
2022/03/08 04:14:10;;;;;;;9.82;5.85;;;;;;;0.85;58.15;102099.47;5059764;28;20783;-82
2022/03/08 04:16:36;;;;;;;9.80;5.93;;;;;;;0.87;58.48;102104.69;5060534;28;20720;-82
2022/03/08 04:19:01;;;;;;;7.95;5.45;;;;;;;0.84;58.83;102092.50;5059975;28;20491;-82
2022/03/08 04:21:26;;;;;;;12.43;6.07;;;;;;;0.81;57.97;102086.34;5059299;28;20514;-82
2022/03/08 04:23:51;;;;;;;8.25;5.57;;;;;;;0.84;58.82;102089.00;5059639;28;20099;-82
2022/03/08 04:26:17;;;;;;;9.52;6.00;;;;;;;0.83;57.32;102085.53;5059555;28;20055;-82
2022/03/08 04:28:42;;;;;;;12.27;6.18;;;;;;;0.82;58.03;102088.97;5059702;28;20831;-82
2022/03/08 04:31:07;;;;;;;11.65;6.30;;;;;;;0.84;59.26;102095.13;5061697;28;20031;-82
2022/03/08 04:33:33;;;;;;;10.38;5.85;;;;;;;0.77;58.36;102082.81;5061848;28;20071;-82
2022/03/08 04:35:58;;;;;;;11.13;6.85;;;;;;;0.80;58.01;102092.41;5061762;28;20024;-82
2022/03/08 04:38:23;;;;;;;8.63;5.00;;;;;;;0.77;57.34;102094.09;5061562;28;20119;-82
2022/03/08 04:40:49;;;;;;;6.25;5.13;;;;;;;0.64;58.36;102076.47;5060970;28;20024;-82
2022/03/08 04:43:14;;;;;;;8.48;5.40;;;;;;;0.62;58.62;102082.50;5059598;28;20113;-82
2022/03/08 04:45:39;;;;;;;10.05;6.30;;;;;;;0.62;59.61;102085.09;5058685;28;20032;-83
2022/03/08 04:48:05;;;;;;;10.35;5.75;;;;;;;0.61;58.61;102081.63;5059597;28;20272;-82
2022/03/08 04:50:30;;;;;;;11.68;6.53;;;;;;;0.56;60.75;102084.97;5061189;28;20458;-82
2022/03/08 04:52:55;;;;;;;11.75;5.97;;;;;;;0.56;58.66;102082.34;5059770;28;20047;-82
2022/03/08 04:55:21;;;;;;;9.02;5.82;;;;;;;0.65;58.31;102090.34;5060164;28;20501;-82
2022/03/08 04:57:47;;;;;;;9.50;6.20;;;;;;;0.67;59.34;102088.69;5060743;28;20021;-82
2022/03/08 05:00:13;;;;;;;11.15;5.85;;;;;;;0.61;58.43;102085.97;5054488;28;20036;-82
2022/03/08 05:02:40;;;;;;;7.40;5.53;;;;;;;0.56;58.23;102090.16;5059175;28;20435;-82
2022/03/08 05:05:08;;;;;;;7.50;5.10;;;;;;;0.48;58.46;102083.09;5063057;28;20048;-82
2022/03/08 05:07:36;;;;;;;10.50;6.72;;;;;;;0.43;63.18;102084.72;5063859;28;20026;-82
2022/03/08 05:10:07;;;;;;;10.30;5.72;;;;;;;0.47;61.84;102091.75;5063406;28;20028;-82
2022/03/08 05:12:34;;;;;;;10.02;5.82;;;;;;;0.43;59.47;102084.72;5064008;28;20562;-83
2022/03/08 05:14:59;;;;;;;9.10;5.95;;;;;;;0.42;59.65;102095.06;5065240;28;20024;-82
2022/03/08 05:17:25;;;;;;;8.52;5.25;;;;;;;0.43;60.29;102079.53;5062639;28;20028;-82
2022/03/08 05:19:51;;;;;;;11.73;5.80;;;;;;;0.52;59.37;102086.66;5061187;28;20058;-82
2022/03/08 05:22:17;;;;;;;10.82;6.00;;;;;;;0.49;59.02;102076.16;5064175;28;20032;-82
2022/03/08 05:24:42;;;;;;;9.63;5.72;;;;;;;0.48;59.33;102074.41;5064331;28;20538;-82
2022/03/08 05:27:07;;;;;;;8.93;5.80;;;;;;;0.48;60.43;102075.28;5062853;28;20555;-82
2022/03/08 05:29:34;;;;;;;12.55;5.93;;;;;;;0.50;59.88;102072.69;5063199;28;20621;-82
2022/03/08 05:31:59;;;;;;;10.70;6.60;;;;;;;0.51;61.55;102074.44;5062357;28;20027;-82
2022/03/08 05:34:24;;;;;;;12.65;6.45;;;;;;;0.46;59.22;102061.34;5062687;28;20414;-82
2022/03/08 05:36:49;;;;;;;6.30;4.78;;;;;;;0.54;59.74;102071.94;5063124;28;20112;-82
2022/03/08 05:39:15;;;;;;;8.65;6.00;;;;;;;0.48;59.07;102075.28;5061198;28;20024;-82
2022/03/08 05:41:40;;;;;;;10.73;6.05;;;;;;;0.47;59.91;102086.53;5064080;28;20051;-82
2022/03/08 05:44:05;;;;;;;7.07;5.20;;;;;;;0.37;59.11;102071.56;5062311;28;20553;-82
2022/03/08 05:46:31;;;;;;;11.40;6.10;;;;;;;0.28;59.50;102062.69;5061253;28;20753;-82
2022/03/08 05:48:56;;;;;;;8.73;5.55;;;;;;;0.30;60.10;102074.03;5059549;28;20054;-82
2022/03/08 05:51:21;;;;;;;9.88;5.97;;;;;;;0.25;60.31;102076.53;5061510;28;20028;-82
2022/03/08 05:53:47;;;;;;;10.25;5.78;;;;;;;0.33;59.14;102064.56;5064073;28;20030;-82
2022/03/08 05:56:12;;;;;;;10.32;5.75;;;;;;;0.34;59.66;102068.03;5063713;28;20077;-82
2022/03/08 05:58:37;;;;;;;9.68;5.78;;;;;;;0.34;59.40;102065.44;5062418;28;20538;-82
2022/03/08 06:01:02;;;;;;;11.43;5.85;;;;;;;0.27;60.48;102066.13;5062060;28;20098;-82
2022/03/08 06:03:28;;;;;;;10.00;5.95;;;;;;;0.38;59.56;102064.66;5060858;28;20471;-82
2022/03/08 06:05:53;;;;;;;10.35;5.43;;;;;;;0.42;59.46;102067.38;5062204;28;20033;-82
2022/03/08 06:08:18;;;;;;;11.07;6.20;;;;;;;0.45;59.49;102058.72;5062951;28;20471;-82
2022/03/08 06:10:44;;;;;;;8.70;5.57;;;;;;;0.49;59.61;102068.34;5060816;28;20059;-82
2022/03/08 06:13:09;;;;;;;8.82;5.55;;;;;;;0.53;60.13;102066.69;5062501;28;20107;-82
2022/03/08 06:15:34;;;;;;;9.13;5.13;;;;;;;0.56;59.63;102066.75;5059244;28;20423;-82
2022/03/08 06:18:00;;;;;;;10.25;6.63;;;;;;;0.56;59.20;102072.84;5060485;28;20405;-83
2022/03/08 06:20:25;;;;;;;9.70;5.88;;;;;;;0.59;59.78;102070.28;5059719;28;20621;-83
2022/03/08 06:22:50;;;;;;;10.15;5.53;;;;;;;0.58;58.93;102068.53;5061990;28;20048;-82
2022/03/08 06:25:16;;;;;;;8.30;5.45;;;;;;;0.63;59.34;102068.63;5060206;28;20044;-82
2022/03/08 06:27:41;;;;;;;8.60;6.28;;;;;;;0.71;60.63;102074.88;5063172;28;20048;-82
2022/03/08 06:30:07;;;;;;;12.02;5.90;;;;;;;0.70;59.21;102066.22;5060930;28;20111;-82
2022/03/08 06:32:33;;;;;;;10.07;6.40;;;;;;;0.76;58.61;102070.66;5061555;28;20038;-82
2022/03/08 06:34:58;;;;;;;10.48;6.47;;;;;;;0.73;58.75;102070.56;5060657;28;21304;-82
2022/03/08 06:37:23;;;;;;;9.93;6.18;;;;;;;0.77;58.58;102067.19;5063071;28;20507;-82
2022/03/08 06:39:49;;;;;;;6.70;4.72;;;;;;;0.80;58.11;102067.25;5061653;28;20020;-82
2022/03/08 06:42:15;;;;;;;12.57;6.93;;;;;;;0.88;59.32;102076.06;5060494;28;20530;-82
2022/03/08 06:44:41;;;;;;;11.98;6.90;;;;;;;0.88;58.23;102062.19;5060291;28;20035;-83
2022/03/08 06:47:08;;;;;;;9.63;5.80;;;;;;;0.98;57.72;102064.13;5061081;28;20029;-82
2022/03/08 06:49:34;;;;;;;7.25;5.15;;;;;;;1.06;57.36;102069.47;5061343;28;20130;-82
2022/03/08 06:52:00;;;;;;;9.90;6.20;;;;;;;1.10;57.11;102071.28;5062386;28;20024;-82
2022/03/08 06:54:26;;;;;;;9.07;5.50;;;;;;;1.12;57.10;102069.56;5059950;28;20082;-82
2022/03/08 06:56:51;;;;;;;10.73;6.07;;;;;;;1.24;56.93;102075.00;5062229;28;20583;-82
2022/03/08 06:59:17;;;;;;;9.52;5.43;;;;;;;1.24;56.73;102080.22;5059879;28;20032;-82
2022/03/08 07:01:42;;;;;;;9.23;5.32;;;;;;;1.24;56.28;102083.69;5058243;28;20086;-82
2022/03/08 07:04:08;;;;;;;12.43;6.53;;;;;;;1.22;56.51;102075.00;5060551;28;20460;-82
2022/03/08 07:06:33;;;;;;;13.23;6.55;;;;;;;1.28;56.58;102079.44;5060334;28;20070;-82
2022/03/08 07:08:58;;;;;;;11.25;6.57;;;;;;;1.30;56.53;102077.72;5061122;28;20445;-82
2022/03/08 07:11:24;;;;;;;11.45;6.47;;;;;;;1.45;56.61;102079.75;5057878;28;20426;-82
2022/03/08 07:13:50;;;;;;;10.27;6.60;;;;;;;1.49;56.11;102079.81;5059243;28;20028;-83
2022/03/08 07:16:15;;;;;;;9.77;5.93;;;;;;;1.54;56.50;102072.06;5060388;28;20572;-82
2022/03/08 07:18:40;;;;;;;10.25;6.63;;;;;;;1.62;56.18;102085.22;5059589;28;20566;-82
2022/03/08 07:21:06;;;;;;;9.90;5.82;;;;;;;1.65;55.73;102074.84;5059531;28;20028;-82
2022/03/08 07:23:32;;;;;;;9.90;6.65;;;;;;;1.71;55.66;102075.81;5058473;28;20113;-82
2022/03/08 07:25:58;;;;;;;10.65;6.10;;;;;;;1.86;55.38;102093.44;5059843;28;20048;-82
2022/03/08 07:28:23;;;;;;;14.95;6.30;;;;;;;1.99;54.73;102084.94;5060220;28;20093;-82
2022/03/08 07:30:49;;;;;;;10.10;6.45;;;;;;;2.02;54.59;102078.91;5060856;28;20361;-82
2022/03/08 07:33:14;;;;;;;9.43;6.75;;;;;;;2.15;54.66;102082.59;5062456;28;20051;-82
2022/03/08 07:35:39;;;;;;;11.65;6.82;;;;;;;2.22;54.13;102082.66;5060800;28;20040;-82
2022/03/08 07:38:05;;;;;;;9.02;6.72;;;;;;;2.28;53.73;102082.78;5060443;28;20032;-82
2022/03/08 07:40:31;;;;;;;11.77;6.50;;;;;;;2.38;53.46;102068.13;5059433;28;20044;-83
2022/03/08 07:42:56;;;;;;;7.45;5.45;;;;;;;2.51;52.95;102074.34;5061021;28;20217;-82
2022/03/08 07:45:21;;;;;;;9.38;6.47;;;;;;;2.61;54.23;102078.84;5061271;28;20221;-82
2022/03/08 07:47:47;;;;;;;10.13;5.80;;;;;;;2.67;53.84;102072.81;5060168;28;20563;-82
2022/03/08 07:50:12;;;;;;;6.88;4.72;;;;;;;2.77;52.88;102064.25;5058790;28;20033;-82
2022/03/08 07:52:38;;;;;;;14.43;5.00;;;;;;;2.90;52.52;102073.97;5060666;28;20032;-83
2022/03/08 07:55:05;;;;;;;8.55;5.32;;;;;;;2.99;52.83;102058.41;5058880;28;20032;-83
2022/03/08 07:57:31;;;;;;;10.38;5.22;;;;;;;3.16;51.81;102068.13;5059874;28;20040;-82
2022/03/08 07:59:56;;;;;;;8.30;5.75;;;;;;;3.25;50.81;102079.56;5060805;28;20032;-82
2022/03/08 08:02:22;;;;;;;8.32;4.60;;;;;;;3.35;51.96;102077.91;5060472;28;20044;-82
2022/03/08 08:04:47;;;;;;;8.52;4.97;;;;;;;3.47;51.72;102087.59;5062431;28;20024;-82
2022/03/08 08:07:12;;;;;;;5.55;4.70;;;;;;;3.61;50.06;102080.75;5058701;28;20028;-82
2022/03/08 08:09:38;;;;;;;7.18;4.70;;;;;;;3.84;49.46;102078.31;5060316;28;20038;-83
2022/03/08 08:12:03;;;;;;;13.27;6.10;;;;;;;4.11;49.20;102077.66;5059712;28;20094;-82
2022/03/08 08:14:29;;;;;;;10.57;6.40;;;;;;;4.33;48.50;102052.44;5062270;28;20510;-82
2022/03/08 08:16:54;;;;;;;7.47;4.22;;;;;;;4.61;48.37;102067.41;5061346;28;20499;-82
2022/03/08 08:19:19;;;;;;;13.55;6.45;;;;;;;4.98;47.73;102077.16;5059997;28;20033;-82
2022/03/08 08:21:45;;;;;;;7.85;5.22;;;;;;;5.24;46.71;102088.59;5058884;28;20038;-82
2022/03/08 08:24:10;;;;;;;8.13;5.40;;;;;;;5.49;45.46;102078.13;5061636;28;20411;-82
2022/03/08 08:26:35;;;;;;;9.77;5.80;;;;;;;5.82;44.63;102072.88;5062507;28;20569;-83
2022/03/08 08:29:01;;;;;;;10.38;5.75;;;;;;;6.06;44.12;102076.38;5061657;28;20060;-82
2022/03/08 08:31:28;;;;;;;10.40;6.45;;;;;;;6.44;44.21;102076.28;5061393;28;20033;-82
2022/03/08 08:33:54;;;;;;;8.52;5.68;;;;;;;6.65;43.12;102094.59;5059372;28;20154;-83
2022/03/08 08:36:20;;;;;;;9.25;6.35;;;;;;;6.87;42.74;102076.97;5060584;28;20086;-83
2022/03/08 08:38:45;;;;;;;7.85;5.47;;;;;;;7.26;40.80;102082.00;5062697;28;20059;-82
2022/03/08 08:41:11;;;;;;;7.35;5.93;;;;;;;7.41;39.84;102093.31;5061847;28;20119;-83
2022/03/08 08:43:36;;;;;;;12.27;5.65;;;;;;;7.53;39.45;102073.06;5065170;28;20221;-82
2022/03/08 08:46:01;;;;;;;9.27;5.47;;;;;;;7.62;39.07;102081.75;5060429;28;20456;-82
2022/03/08 08:48:27;;;;;;;7.05;4.97;;;;;;;8.05;39.01;102067.31;5062786;28;20032;-83
2022/03/08 08:50:53;;;;;;;6.93;5.70;;;;;;;8.31;37.35;102064.44;5063190;28;20024;-83
2022/03/08 08:53:19;;;;;;;6.78;5.47;;;;;;;8.72;37.44;102058.69;5062681;28;20111;-82
2022/03/08 08:55:44;;;;;;;7.72;4.00;;;;;;;8.92;36.90;102058.44;5061437;28;20047;-83
2022/03/08 08:58:10;;;;;;;7.40;5.63;;;;;;;9.01;36.85;102058.31;5063886;28;20033;-83
2022/03/08 09:00:36;;;;;;;6.10;4.97;;;;;;;9.28;34.74;102064.03;5064244;28;20038;-82
2022/03/08 09:03:01;;;;;;;9.73;4.45;;;;;;;9.53;34.39;102060.13;5061969;28;20040;-82
2022/03/08 09:05:27;;;;;;;10.38;5.40;;;;;;;9.64;34.95;102062.59;5063888;28;20032;-83
2022/03/08 09:07:53;;;;;;;8.10;4.82;;;;;;;10.18;33.59;102065.16;5061769;28;20025;-82
2022/03/08 09:10:20;;;;;;;6.63;5.45;;;;;;;10.87;33.08;102069.09;5063725;28;20032;-82
2022/03/08 09:12:50;;;;;;;7.82;5.60;;;;;;;10.86;33.06;102069.97;5064487;28;20081;-83
2022/03/08 09:15:16;;;;;;;6.03;5.15;;;;;;;10.89;31.34;102060.22;5065535;28;20500;-83
2022/03/08 09:17:41;;;;;;;9.38;5.20;;;;;;;11.15;31.44;102062.28;5062892;28;20035;-82
2022/03/08 09:20:07;;;;;;;7.10;4.82;;;;;;;11.88;30.60;102062.28;5064797;28;20412;-83
2022/03/08 09:22:33;;;;;;;12.35;5.93;;;;;;;11.98;28.64;102065.53;5064687;28;20379;-82
2022/03/08 09:24:58;;;;;;;32.50;7.57;;;;;;;11.17;30.55;102055.16;5062169;28;20416;-83
2022/03/08 09:27:24;;;;;;;8.82;4.72;;;;;;;12.21;29.62;102049.88;5064081;28;20028;-82
2022/03/08 09:29:49;;;;;;;5.28;4.63;;;;;;;12.76;28.64;102037.69;5063695;28;20040;-83
2022/03/08 09:32:15;;;;;;;7.30;4.95;;;;;;;13.23;27.31;102056.63;5064236;28;20040;-83
2022/03/08 09:34:40;;;;;;;8.07;5.55;;;;;;;13.36;27.46;102045.63;5063540;28;20047;-83
2022/03/08 09:37:09;;;;;;;8.93;4.50;;;;;;;13.86;28.38;102035.09;5063386;28;20039;-83
2022/03/08 09:39:34;;;;;;;6.72;5.22;;;;;;;14.71;26.59;102037.31;5062471;28;20029;-83
2022/03/08 09:42:01;;;;;;;8.52;4.03;;;;;;;14.58;25.75;102025.38;5064382;28;20139;-83
2022/03/08 09:44:26;;;;;;;6.50;5.07;;;;;;;14.53;25.47;102027.34;5063533;28;20445;-83
2022/03/08 09:46:52;;;;;;;8.00;5.60;;;;;;;13.85;25.97;102017.38;5064218;28;20052;-82
2022/03/08 09:49:17;;;;;;;8.10;5.63;;;;;;;14.21;26.29;102007.22;5062658;28;20442;-83
2022/03/08 09:51:42;;;;;;;7.47;5.40;;;;;;;15.05;24.71;102012.88;5063323;28;20059;-83
2022/03/08 09:54:09;;;;;;;8.98;4.90;;;;;;;14.54;24.58;101999.81;5064148;28;20040;-83
2022/03/08 09:56:35;;;;;;;6.13;5.30;;;;;;;13.69;25.50;102009.94;5063167;28;20182;-83
2022/03/08 09:59:00;;;;;;;6.05;4.45;;;;;;;14.30;26.37;102010.41;5063305;28;20033;-83
2022/03/08 10:01:27;;;;;;;7.43;5.28;;;;;;;15.00;26.00;102014.84;5062932;28;20031;-83
2022/03/08 10:03:52;;;;;;;6.43;4.70;;;;;;;15.73;24.49;101999.44;5062443;28;20036;-82
2022/03/08 10:06:18;;;;;;;6.03;4.57;;;;;;;15.17;23.34;101997.34;5063809;28;20028;-82
2022/03/08 10:08:44;;;;;;;8.57;4.95;;;;;;;15.42;23.38;102003.38;5062762;28;20056;-83
2022/03/08 10:11:12;;;;;;;5.78;4.68;;;;;;;15.68;23.34;102004.97;5063429;28;20039;-82
2022/03/08 10:13:46;;;;;;;5.93;4.80;;;;;;;14.71;23.55;101993.84;5063166;28;20402;-82
2022/03/08 10:16:26;;;;;;;5.68;5.13;;;;;;;14.61;24.41;101995.13;5060767;28;20407;-82
2022/03/08 10:18:54;;;;;;;6.97;4.80;;;;;;;15.81;23.66;101994.66;5060769;28;20367;-82
2022/03/08 10:21:28;;;;;;;5.20;4.70;;;;;;;15.59;23.20;102008.00;5059890;28;20074;-82
2022/03/08 10:23:54;;;;;;;9.60;5.00;;;;;;;15.60;23.52;101996.41;5062064;28;20036;-82
2022/03/08 10:26:20;;;;;;;5.70;4.53;;;;;;;15.71;22.25;102010.16;5062382;28;20543;-82
2022/03/08 10:28:47;;;;;;;10.25;5.20;;;;;;;15.61;22.60;101987.47;5061283;28;20422;-82
2022/03/08 10:31:14;;;;;;;10.15;5.28;;;;;;;16.48;21.86;101988.06;5060932;28;20055;-82
2022/03/08 10:33:40;;;;;;;7.68;4.80;;;;;;;17.49;21.66;101986.72;5062796;28;20063;-83
2022/03/08 10:36:21;;;;;;;4.55;4.13;;;;;;;17.45;20.84;101985.16;5060704;28;20070;-82
2022/03/08 10:39:13;;;;;;;6.60;4.18;;;;;;;16.74;21.87;101982.41;5061515;28;20062;-83
2022/03/08 10:41:48;;;;;;;8.68;4.50;;;;;;;16.42;21.81;101983.91;5060523;28;20502;-83
2022/03/08 10:44:14;;;;;;;6.72;4.55;;;;;;;17.26;20.84;101985.22;5058995;28;20051;-82
2022/03/08 10:46:40;;;;;;;4.97;4.47;;;;;;;17.48;20.68;101984.97;5061959;28;20029;-83
2022/03/08 10:49:12;;;;;;;6.72;5.18;;;;;;;16.35;22.09;101987.78;5059560;28;20548;-82
2022/03/08 10:51:38;;;;;;;6.95;4.80;;;;;;;17.49;21.67;101977.84;5062227;28;20135;-83
2022/03/08 10:54:11;;;;;;;7.53;5.47;;;;;;;18.42;21.17;101983.63;5061247;28;20610;-82
2022/03/08 10:56:43;;;;;;;5.55;4.65;;;;;;;18.17;19.43;101986.75;5061258;28;20048;-83
2022/03/08 10:59:10;;;;;;;5.53;4.78;;;;;;;18.05;19.77;101979.41;5061117;28;20036;-82
2022/03/08 11:01:35;;;;;;;5.97;4.20;;;;;;;17.40;20.66;101989.00;5061528;28;20025;-82
2022/03/08 11:04:01;;;;;;;7.28;4.65;;;;;;;17.46;20.58;101965.50;5059585;28;20465;-82
2022/03/08 11:06:26;;;;;;;6.78;4.95;;;;;;;17.36;20.32;101974.91;5060737;28;20031;-82
2022/03/08 11:08:53;;;;;;;7.88;5.40;;;;;;;17.50;20.95;101967.06;5061925;28;20424;-82
2022/03/08 11:11:21;;;;;;;6.68;5.55;;;;;;;17.64;20.00;101968.16;5062576;28;20093;-83
2022/03/08 11:13:50;;;;;;;7.93;5.25;;;;;;;17.20;21.25;101958.78;5060619;28;20448;-83
2022/03/08 11:16:16;;;;;;;6.97;5.63;;;;;;;16.34;21.60;101959.34;5059696;28;20035;-83
2022/03/08 11:18:48;;;;;;;6.80;5.60;;;;;;;16.45;22.12;101958.84;5061572;28;20032;-82
2022/03/08 11:21:14;;;;;;;5.35;4.82;;;;;;;16.88;21.86;101967.50;5059467;28;20036;-82
2022/03/08 11:23:41;;;;;;;6.88;4.63;;;;;;;16.65;21.39;101963.28;5060134;28;20483;-82